createdAt,value
2018-02-08T00:01:20.754Z,63.28
2018-02-08T00:03:48.303Z,59.70
2018-02-08T00:06:15.779Z,66.15
2018-02-08T00:08:43.273Z,59.72
2018-02-08T00:11:10.779Z,61.00
2018-02-08T00:13:38.295Z,57.03
2018-02-08T00:16:05.800Z,64.90
2018-02-08T00:18:33.361Z,65.32
2018-02-08T00:21:00.938Z,63.83
2018-02-08T00:23:28.535Z,60.88
2018-02-08T00:25:56.072Z,62.60
2018-02-08T00:28:23.562Z,67.40
2018-02-08T00:30:51.103Z,57.88
2018-02-08T00:33:18.716Z,66.37
2018-02-08T00:35:46.326Z,60.72
2018-02-08T00:38:13.823Z,63.30
2018-02-08T00:40:41.478Z,64.25
2018-02-08T00:43:09.112Z,64.72
2018-02-08T00:45:36.833Z,67.75
2018-02-08T00:48:04.478Z,61.92
2018-02-08T00:50:31.954Z,62.78
2018-02-08T00:52:59.466Z,64.78
2018-02-08T00:55:26.978Z,73.85
2018-02-08T00:57:54.507Z,64.30
2018-02-08T01:00:22.773Z,65.03
2018-02-08T01:02:50.249Z,69.62
2018-02-08T01:05:17.754Z,64.22
2018-02-08T01:07:45.232Z,68.95
2018-02-08T01:10:12.741Z,66.97
2018-02-08T01:12:40.237Z,68.62
2018-02-08T01:15:07.731Z,68.65
2018-02-08T01:17:35.316Z,74.47
2018-02-08T01:20:02.958Z,74.60
2018-02-08T01:22:30.555Z,64.28
2018-02-08T01:24:58.103Z,70.03
2018-02-08T01:27:25.590Z,65.55
2018-02-08T01:29:53.095Z,65.28
2018-02-08T01:32:20.612Z,66.03
2018-02-08T01:34:48.859Z,70.50
2018-02-08T01:37:16.345Z,70.97
2018-02-08T01:39:43.854Z,62.97
2018-02-08T01:42:11.345Z,69.12
2018-02-08T01:44:38.830Z,74.72
2018-02-08T01:47:06.357Z,69.50
2018-02-08T01:49:45.724Z,66.30
2018-02-08T01:52:13.245Z,72.40
2018-02-08T01:54:40.761Z,65.47
2018-02-08T01:57:08.255Z,70.72
2018-02-08T01:59:35.787Z,69.03
2018-02-08T02:02:03.297Z,73.07
2018-02-08T02:04:31.383Z,65.85
2018-02-08T02:06:58.895Z,72.70
2018-02-08T02:09:26.659Z,74.32
2018-02-08T02:11:54.150Z,70.18
2018-02-08T02:14:21.702Z,70.40
2018-02-08T02:16:49.207Z,66.72
2018-02-08T02:19:16.721Z,68.72
2018-02-08T02:21:44.238Z,75.95
2018-02-08T02:24:11.730Z,68.32
2018-02-08T02:26:39.239Z,64.50
2018-02-08T02:29:06.746Z,66.68
2018-02-08T02:31:34.245Z,73.72
2018-02-08T02:34:01.731Z,73.62
2018-02-08T02:36:29.232Z,74.80
2018-02-08T02:38:56.760Z,69.87
2018-02-08T02:41:24.265Z,67.82
2018-02-08T02:43:51.800Z,71.53
2018-02-08T02:46:19.296Z,72.37
2018-02-08T02:48:46.787Z,70.43
2018-02-08T02:51:14.276Z,79.90
2018-02-08T02:53:41.797Z,71.30
2018-02-08T02:56:09.761Z,74.20
2018-02-08T02:58:37.307Z,69.82
2018-02-08T03:01:04.895Z,75.20
2018-02-08T03:03:32.489Z,74.55
2018-02-08T03:06:00.032Z,71.95
2018-02-08T03:08:27.525Z,78.87
2018-02-08T03:10:55.032Z,71.00
2018-02-08T03:13:22.513Z,71.03
2018-02-08T03:15:50.066Z,72.20
2018-02-08T03:18:17.539Z,81.18
2018-02-08T03:20:45.012Z,71.70
2018-02-08T03:23:12.529Z,71.62
2018-02-08T03:25:40.018Z,74.95
2018-02-08T03:28:07.528Z,70.15
2018-02-08T03:33:38.855Z,70.82
2018-02-08T03:36:06.357Z,77.72
2018-02-08T03:38:33.857Z,72.55
2018-02-08T03:41:01.370Z,75.40
2018-02-08T03:43:28.857Z,75.03
2018-02-08T03:45:56.431Z,82.28
2018-02-08T03:48:24.005Z,71.00
2018-02-08T03:50:51.536Z,80.25
2018-02-08T03:53:19.022Z,66.53
2018-02-08T03:55:46.524Z,76.80
2018-02-08T03:58:14.045Z,77.60
2018-02-08T04:00:41.530Z,77.28
2018-02-08T04:03:09.048Z,70.80
2018-02-08T04:05:36.533Z,74.93
2018-02-08T04:08:04.052Z,79.10
2018-02-08T04:10:31.597Z,84.65
2018-02-08T04:12:59.089Z,80.32
2018-02-08T04:15:26.705Z,80.90
2018-02-08T04:17:54.328Z,98.20
2018-02-08T04:20:21.908Z,77.05
2018-02-08T04:22:49.448Z,73.50
2018-02-08T04:25:16.969Z,83.25
2018-02-08T04:27:44.475Z,84.18
2018-02-08T04:30:12.044Z,83.90
2018-02-08T04:32:39.541Z,82.53
2018-02-08T04:35:07.063Z,87.70
2018-02-08T04:37:34.555Z,82.72
2018-02-08T04:40:13.908Z,82.70
2018-02-08T04:42:53.818Z,80.93
2018-02-08T04:45:33.066Z,77.82
2018-02-08T04:48:08.720Z,86.95
2018-02-08T04:50:36.229Z,84.18
2018-02-08T04:53:03.747Z,84.07
2018-02-08T04:55:31.295Z,78.05
2018-02-08T04:57:58.796Z,86.90
2018-02-08T05:00:26.335Z,81.25
2018-02-08T05:02:56.351Z,75.57
2018-02-08T05:05:23.936Z,92.97
2018-02-08T05:07:51.417Z,80.28
2018-02-08T05:10:18.898Z,72.15
2018-02-08T05:12:47.220Z,79.85
2018-02-08T05:15:14.864Z,84.70
2018-02-08T05:17:42.410Z,77.87
2018-02-08T05:20:09.990Z,78.40
2018-02-08T05:22:37.560Z,80.40
2018-02-08T05:25:05.053Z,83.62
2018-02-08T05:27:32.552Z,80.85
2018-02-08T05:30:00.150Z,85.45
2018-02-08T05:32:27.640Z,81.50
2018-02-08T05:34:55.173Z,79.75
2018-02-08T05:37:23.336Z,83.07
2018-02-08T05:39:50.855Z,86.18
2018-02-08T05:42:18.425Z,81.80
2018-02-08T05:44:45.990Z,89.00
2018-02-08T05:47:13.539Z,81.72
2018-02-08T05:49:41.136Z,82.37
2018-02-08T05:52:08.713Z,82.95
2018-02-08T05:54:36.310Z,86.55
2018-02-08T05:57:03.876Z,87.88
2018-02-08T05:59:31.460Z,77.28
2018-02-08T06:01:58.951Z,81.60
2018-02-08T06:04:26.471Z,88.28
2018-02-08T06:06:54.012Z,86.37
2018-02-08T06:09:21.527Z,87.20
2018-02-08T06:11:49.014Z,91.15
2018-02-08T06:14:16.563Z,86.35
2018-02-08T06:16:44.568Z,89.72
2018-02-08T06:19:12.153Z,96.50
2018-02-08T06:21:39.747Z,93.90
2018-02-08T06:24:07.371Z,92.60
2018-02-08T06:26:34.948Z,93.85
2018-02-08T06:29:02.586Z,89.07
2018-02-08T06:31:30.139Z,93.68
2018-02-08T06:33:57.703Z,90.10
2018-02-08T06:36:25.216Z,93.65
2018-02-08T06:38:52.689Z,95.05
2018-02-08T06:41:20.203Z,89.20
2018-02-08T06:43:47.704Z,87.40
2018-02-08T06:46:15.237Z,98.37
2018-02-08T06:48:42.744Z,82.12
2018-02-08T06:51:10.224Z,85.62
2018-02-08T06:53:37.784Z,91.65
2018-02-08T06:56:05.263Z,91.90
2018-02-08T06:58:32.791Z,88.35
2018-02-08T07:01:00.360Z,85.15
2018-02-08T07:03:27.853Z,91.10
2018-02-08T07:05:55.527Z,91.50
2018-02-08T07:08:23.023Z,95.12
2018-02-08T07:10:50.564Z,102.03
2018-02-08T07:13:18.094Z,91.70
2018-02-08T07:15:45.726Z,94.93
2018-02-08T07:18:13.304Z,88.95
2018-02-08T07:20:41.000Z,86.82
2018-02-08T07:23:08.558Z,98.05
2018-02-08T07:25:36.157Z,94.37
2018-02-08T07:28:03.664Z,92.28
2018-02-08T07:30:31.154Z,99.50
2018-02-08T07:32:58.671Z,93.68
2018-02-08T07:35:26.167Z,96.53
2018-02-08T07:37:53.703Z,92.75
2018-02-08T07:40:21.185Z,95.30
2018-02-08T07:42:48.718Z,97.60
2018-02-08T07:45:16.248Z,93.50
2018-02-08T07:47:43.753Z,89.43
2018-02-08T07:50:11.259Z,91.10
2018-02-08T07:52:38.799Z,95.00
2018-02-08T07:55:06.353Z,95.70
2018-02-08T07:57:34.014Z,96.80
2018-02-08T08:00:01.604Z,95.68
2018-02-08T08:02:29.096Z,97.15
2018-02-08T08:04:56.616Z,95.35
2018-02-08T08:07:24.106Z,96.93
2018-02-08T08:09:51.612Z,97.82
2018-02-08T08:12:19.135Z,98.53
2018-02-08T08:14:46.626Z,99.57
2018-02-08T08:17:14.162Z,100.12
2018-02-08T08:19:41.687Z,101.25
2018-02-08T08:22:09.217Z,102.28
2018-02-08T08:24:36.727Z,91.07
2018-02-08T08:27:04.236Z,90.60
2018-02-08T08:29:31.744Z,97.55
2018-02-08T08:31:59.233Z,93.72
2018-02-08T08:34:26.815Z,85.65
2018-02-08T08:36:54.344Z,99.43
2018-02-08T08:39:21.996Z,95.38
2018-02-08T08:41:49.506Z,101.80
2018-02-08T08:44:17.062Z,93.60
2018-02-08T08:46:44.588Z,91.87
2018-02-08T08:49:12.075Z,90.95
2018-02-08T08:51:39.590Z,98.47
2018-02-08T08:54:07.148Z,101.03
2018-02-08T08:56:34.677Z,102.43
2018-02-08T08:59:02.205Z,100.20
2018-02-08T09:01:29.710Z,95.87
2018-02-08T09:03:57.199Z,97.88
2018-02-08T09:06:24.676Z,95.82
2018-02-08T09:08:52.197Z,93.40
2018-02-08T09:11:19.703Z,97.85
2018-02-08T09:13:47.257Z,105.03
2018-02-08T09:16:14.774Z,99.72
2018-02-08T09:18:42.292Z,106.65
2018-02-08T09:21:09.783Z,98.53
2018-02-08T09:23:37.464Z,99.80
2018-02-08T09:26:05.070Z,103.05
2018-02-08T09:28:32.678Z,111.00
2018-02-08T09:31:00.276Z,105.20
2018-02-08T09:33:27.805Z,94.20
2018-02-08T09:35:55.441Z,104.45
2018-02-08T09:38:22.939Z,97.22
2018-02-08T09:40:50.536Z,98.35
2018-02-08T09:43:18.026Z,102.32
2018-02-08T09:45:45.534Z,98.97
2018-02-08T09:48:13.041Z,96.35
2018-02-08T09:50:40.567Z,99.90
2018-02-08T09:53:08.081Z,99.30
2018-02-08T09:55:35.567Z,93.53
2018-02-08T09:58:03.079Z,100.10
2018-02-08T10:00:30.572Z,104.03
2018-02-08T10:02:58.122Z,100.78
2018-02-08T10:05:25.703Z,100.62
2018-02-08T10:07:53.316Z,106.18
2018-02-08T10:10:20.826Z,101.03
2018-02-08T10:12:48.306Z,103.35
2018-02-08T10:15:16.232Z,98.65
2018-02-08T10:17:43.718Z,102.82
2018-02-08T10:20:11.214Z,103.38
2018-02-08T10:22:38.735Z,105.20
2018-02-08T10:25:06.302Z,102.15
2018-02-08T10:27:33.844Z,101.43
2018-02-08T10:30:01.482Z,102.90
2018-02-08T10:32:29.500Z,101.50
2018-02-08T10:34:56.996Z,100.90
2018-02-08T10:37:24.527Z,99.90
2018-02-08T10:39:52.055Z,112.60
2018-02-08T10:42:19.572Z,102.65
2018-02-08T10:44:47.085Z,101.43
2018-02-08T10:47:14.651Z,100.47
2018-02-08T10:49:42.147Z,100.40
2018-02-08T10:52:09.704Z,101.72
2018-02-08T10:54:37.220Z,118.78
2018-02-08T10:57:04.730Z,101.70
2018-02-08T10:59:32.251Z,97.75
2018-02-08T11:01:59.769Z,102.47
2018-02-08T11:04:27.297Z,106.28
2018-02-08T11:06:54.785Z,112.25
2018-02-08T11:09:22.308Z,103.72
2018-02-08T11:11:49.908Z,102.45
2018-02-08T11:14:17.430Z,105.93
2018-02-08T11:16:44.942Z,112.60
2018-02-08T11:19:12.471Z,106.90
2018-02-08T11:21:39.982Z,107.65
2018-02-08T11:24:07.531Z,104.12
2018-02-08T11:26:35.131Z,104.80
2018-02-08T11:29:02.641Z,106.12
2018-02-08T11:31:30.241Z,105.00
2018-02-08T11:33:57.746Z,97.43
2018-02-08T11:36:25.252Z,101.62
2018-02-08T11:38:52.804Z,116.00
2018-02-08T11:41:20.309Z,104.90
2018-02-08T11:43:47.827Z,108.50
2018-02-08T11:46:15.369Z,103.47
2018-02-08T11:48:42.885Z,104.50
2018-02-08T11:51:10.384Z,107.68
2018-02-08T11:53:37.908Z,109.00
2018-02-08T11:56:05.396Z,101.53
2018-02-08T11:58:32.914Z,101.57
2018-02-08T12:01:00.428Z,118.80
2018-02-08T12:03:27.944Z,112.45
2018-02-08T12:05:55.528Z,105.15
2018-02-08T12:08:23.030Z,108.50
2018-02-08T12:10:50.554Z,108.03
2018-02-08T12:13:18.080Z,110.72
2018-02-08T12:15:45.612Z,105.03
2018-02-08T12:18:13.637Z,103.40
2018-02-08T12:20:41.176Z,107.00
2018-02-08T12:23:08.777Z,105.45
2018-02-08T12:25:36.349Z,105.35
2018-02-08T12:28:03.960Z,104.85
2018-02-08T12:30:31.489Z,109.85
2018-02-08T12:32:59.099Z,107.37
2018-02-08T12:35:26.641Z,104.45
2018-02-08T12:37:54.179Z,109.30
2018-02-08T12:40:21.712Z,108.30
2018-02-08T12:42:49.224Z,108.78
2018-02-08T12:45:16.787Z,108.43
2018-02-08T12:47:44.313Z,111.75
2018-02-08T12:50:11.892Z,110.97
2018-02-08T12:52:39.974Z,98.20
2018-02-08T12:55:07.531Z,110.53
2018-02-08T12:57:35.100Z,108.25
2018-02-08T13:00:02.602Z,109.30
2018-02-08T13:02:30.180Z,110.93
2018-02-08T13:04:57.707Z,110.70
2018-02-08T13:07:25.398Z,106.18
2018-02-08T13:09:52.905Z,106.68
2018-02-08T13:12:20.519Z,113.00
2018-02-08T13:14:48.004Z,109.60
2018-02-08T13:17:15.538Z,102.23
2018-02-08T13:19:43.021Z,104.83
2018-02-08T13:22:10.551Z,107.33
2018-02-08T13:24:38.069Z,108.87
2018-02-08T13:27:05.585Z,94.45
2018-02-08T13:29:33.132Z,102.87
2018-02-08T13:32:01.131Z,98.70
2018-02-08T13:34:28.676Z,103.63
2018-02-08T13:36:56.266Z,95.97
2018-02-08T13:42:25.663Z,108.23
2018-02-08T13:44:53.166Z,105.27
2018-02-08T13:47:26.244Z,114.07
2018-02-08T13:49:59.208Z,110.77
2018-02-08T13:52:33.229Z,114.67
2018-02-08T13:55:01.512Z,112.20
2018-02-08T13:57:33.636Z,114.80
2018-02-08T14:00:17.023Z,113.77
2018-02-08T14:02:44.614Z,109.40
2018-02-08T14:05:12.156Z,109.53
2018-02-08T14:07:39.663Z,97.97
2018-02-08T14:10:07.153Z,105.68
2018-02-08T14:12:34.735Z,103.72
2018-02-08T14:15:02.222Z,99.33
2018-02-08T14:17:29.755Z,107.07
2018-02-08T14:19:57.377Z,108.73
2018-02-08T14:22:24.898Z,120.90
2018-02-08T14:24:52.976Z,111.60
2018-02-08T14:27:20.517Z,115.53
2018-02-08T14:29:48.075Z,117.23
2018-02-08T14:32:16.431Z,109.60
2018-02-08T14:34:43.960Z,103.03
2018-02-08T14:37:11.454Z,120.32
2018-02-08T14:39:39.618Z,105.57
2018-02-08T14:42:07.139Z,111.60
2018-02-08T14:44:34.688Z,107.80
2018-02-08T14:47:02.263Z,114.47
2018-02-08T14:49:29.855Z,100.40
2018-02-08T14:51:57.379Z,111.35
2018-02-08T14:54:24.908Z,113.35
2018-02-08T14:56:52.424Z,119.47
2018-02-08T14:59:19.922Z,114.03
2018-02-08T15:01:47.429Z,111.05
2018-02-08T15:04:14.961Z,115.28
2018-02-08T15:06:42.456Z,110.00
2018-02-08T15:09:10.003Z,107.87
2018-02-08T15:11:37.499Z,104.30
2018-02-08T15:14:09.009Z,113.88
2018-02-08T15:16:36.598Z,111.45
2018-02-08T15:19:04.107Z,114.85
2018-02-08T15:21:31.637Z,117.22
2018-02-08T15:23:59.134Z,111.65
2018-02-08T15:26:26.756Z,110.65
2018-02-08T15:28:54.275Z,117.60
2018-02-08T15:31:21.906Z,111.68
2018-02-08T15:33:49.417Z,110.22
2018-02-08T15:36:16.960Z,120.68
2018-02-08T15:38:44.485Z,108.80
2018-02-08T15:41:11.994Z,103.32
2018-02-08T15:43:39.595Z,117.43
2018-02-08T15:46:07.172Z,108.68
2018-02-08T15:48:34.866Z,116.97
2018-02-08T15:51:02.423Z,108.35
2018-02-08T15:53:29.955Z,113.03
2018-02-08T15:55:57.486Z,109.90
2018-02-08T15:58:25.067Z,122.37
2018-02-08T16:00:52.592Z,114.05
2018-02-08T16:03:20.092Z,120.22
2018-02-08T16:05:47.610Z,115.85
2018-02-08T16:08:15.116Z,116.80
2018-02-08T16:10:42.647Z,107.90
2018-02-08T16:13:10.184Z,121.85
2018-02-08T16:15:37.645Z,112.47
2018-02-08T16:18:05.173Z,113.85
2018-02-08T16:20:32.724Z,111.60
2018-02-08T16:23:00.302Z,114.97
2018-02-08T16:25:27.891Z,110.88
2018-02-08T16:27:55.463Z,110.93
2018-02-08T16:30:23.001Z,116.78
2018-02-08T16:32:50.492Z,113.55
2018-02-08T16:35:18.090Z,113.55
2018-02-08T16:37:45.612Z,110.82
2018-02-08T16:40:13.254Z,116.32
2018-02-08T16:42:40.833Z,112.32
2018-02-08T16:45:08.426Z,112.75
2018-02-08T16:47:36.036Z,125.30
2018-02-08T16:50:03.577Z,124.12
2018-02-08T16:52:31.075Z,121.72
2018-02-08T16:54:58.587Z,110.12
2018-02-08T16:57:26.121Z,114.60
2018-02-08T16:59:53.693Z,117.15
2018-02-08T17:02:21.238Z,112.00
2018-02-08T17:04:48.756Z,120.68
2018-02-08T17:07:19.957Z,115.53
2018-02-08T17:09:47.453Z,110.72
2018-02-08T17:12:15.116Z,116.03
2018-02-08T17:14:42.684Z,112.80
2018-02-08T17:17:10.345Z,118.15
2018-02-08T17:19:37.885Z,119.97
2018-02-08T17:22:05.472Z,119.97
2018-02-08T17:24:36.358Z,118.90
2018-02-08T17:27:04.034Z,127.35
2018-02-08T17:29:31.746Z,112.53
2018-02-08T17:31:59.368Z,121.53
2018-02-08T17:34:26.882Z,120.72
2018-02-08T17:36:54.669Z,127.85
2018-02-08T17:39:22.233Z,123.25
2018-02-08T17:41:49.820Z,133.37
2018-02-08T17:44:17.465Z,123.90
2018-02-08T17:46:45.155Z,124.38
2018-02-08T17:49:12.760Z,120.35
2018-02-08T17:51:40.300Z,125.07
2018-02-08T17:54:07.831Z,123.72
2018-02-08T17:56:35.339Z,135.12
2018-02-08T17:59:02.869Z,122.97
2018-02-08T18:01:30.393Z,133.93
2018-02-08T18:03:57.958Z,125.55
2018-02-08T18:06:25.493Z,122.93
2018-02-08T18:08:53.065Z,121.82
2018-02-08T18:11:20.619Z,124.45
2018-02-08T18:13:48.200Z,118.32
2018-02-08T18:16:16.709Z,123.20
2018-02-08T18:18:44.295Z,112.88
2018-02-08T18:21:11.822Z,126.12
2018-02-08T18:23:39.325Z,128.55
2018-02-08T18:26:06.912Z,134.68
2018-02-08T18:28:34.442Z,121.13
2018-02-08T18:31:02.063Z,126.95
2018-02-08T18:33:29.592Z,125.87
2018-02-08T18:35:57.193Z,122.53
2018-02-08T18:38:24.773Z,125.90
2018-02-08T18:40:52.328Z,131.02
2018-02-08T18:43:19.868Z,121.43
2018-02-08T18:45:47.400Z,117.00
2018-02-08T18:48:15.016Z,123.45
2018-02-08T18:50:42.553Z,117.65
2018-02-08T18:53:10.116Z,126.10
2018-02-08T18:55:37.784Z,116.50
2018-02-08T18:58:05.302Z,117.37
2018-02-08T19:00:32.884Z,123.95
2018-02-08T19:03:00.557Z,108.10
2018-02-08T19:05:28.098Z,118.50
2018-02-08T19:07:55.664Z,119.35
2018-02-08T19:10:23.216Z,118.00
2018-02-08T19:12:50.772Z,105.07
2018-02-08T19:15:18.302Z,109.28
2018-02-08T19:17:45.818Z,108.68
2018-02-08T19:20:13.405Z,111.05
2018-02-08T19:22:40.965Z,102.85
2018-02-08T19:25:08.516Z,112.30
2018-02-08T19:27:36.070Z,119.32
2018-02-08T19:30:03.669Z,115.43
2018-02-08T19:32:31.243Z,108.65
2018-02-08T19:34:59.276Z,115.60
2018-02-08T19:37:26.808Z,112.18
2018-02-08T19:39:54.418Z,108.95
2018-02-08T19:42:21.983Z,110.35
2018-02-08T19:44:49.543Z,118.80
2018-02-08T19:47:17.200Z,122.18
2018-02-08T19:49:45.061Z,117.18
2018-02-08T19:52:12.586Z,103.18
2018-02-08T19:54:40.093Z,115.45
2018-02-08T19:57:08.568Z,108.60
2018-02-08T19:59:36.054Z,118.03
2018-02-08T20:02:03.611Z,111.53
2018-02-08T20:04:31.256Z,105.03
2018-02-08T20:06:58.761Z,114.25
2018-02-08T20:09:26.254Z,107.55
2018-02-08T20:11:53.755Z,110.07
2018-02-08T20:14:26.884Z,107.95
2018-02-08T20:16:54.420Z,107.85
2018-02-08T20:19:21.977Z,118.80
2018-02-08T20:21:49.498Z,109.85
2018-02-08T20:24:17.041Z,100.38
2018-02-08T20:26:44.566Z,104.63
2018-02-08T20:29:12.123Z,105.93
2018-02-08T20:31:39.645Z,110.15
2018-02-08T20:34:07.156Z,108.43
2018-02-08T20:36:34.710Z,106.10
2018-02-08T20:39:02.239Z,110.37
2018-02-08T20:41:29.749Z,108.30
2018-02-08T20:43:57.292Z,107.03
2018-02-08T20:46:24.845Z,105.07
2018-02-08T20:48:52.648Z,105.47
2018-02-08T20:51:20.145Z,113.57
2018-02-08T20:53:47.670Z,109.75
2018-02-08T20:56:15.709Z,102.35
2018-02-08T20:58:43.307Z,108.03
2018-02-08T21:01:10.913Z,113.05
2018-02-08T21:03:39.286Z,101.35
2018-02-08T21:06:06.896Z,105.60
2018-02-08T21:08:34.429Z,107.22
2018-02-08T21:11:02.090Z,104.97
2018-02-08T21:13:29.711Z,99.13
2018-02-08T21:15:57.316Z,104.43
2018-02-08T21:18:25.274Z,112.15
2018-02-08T21:20:52.814Z,116.68
2018-02-08T21:23:20.324Z,107.93
2018-02-08T21:25:48.028Z,107.07
2018-02-08T21:28:15.530Z,110.90
2018-02-08T21:30:43.130Z,111.57
2018-02-08T21:33:10.702Z,102.60
2018-02-08T21:35:38.245Z,112.10
2018-02-08T21:38:05.774Z,106.43
2018-02-08T21:40:33.268Z,107.55
2018-02-08T21:43:00.876Z,107.55
2018-02-08T21:45:28.770Z,106.78
2018-02-08T21:47:56.282Z,112.97
2018-02-08T21:50:24.217Z,119.60
2018-02-08T21:52:52.464Z,118.25
2018-02-08T21:55:19.962Z,114.18
2018-02-08T21:57:47.482Z,112.90
2018-02-08T22:00:14.987Z,106.28
2018-02-08T22:02:42.527Z,101.97
2018-02-08T22:05:10.026Z,116.07
2018-02-08T22:07:37.705Z,101.40
2018-02-08T22:10:05.287Z,109.65
2018-02-08T22:12:32.920Z,106.12
2018-02-08T22:15:00.460Z,97.00
2018-02-08T22:17:28.016Z,112.28
2018-02-08T22:19:55.544Z,107.65
2018-02-08T22:22:23.046Z,109.18
2018-02-08T22:24:51.331Z,103.25
2018-02-08T22:27:18.843Z,105.60
2018-02-08T22:29:46.398Z,104.82
2018-02-08T22:32:13.956Z,111.30
2018-02-08T22:34:41.783Z,103.25
2018-02-08T22:37:09.352Z,106.70
2018-02-08T22:39:36.909Z,116.75
2018-02-08T22:42:04.440Z,104.70
2018-02-08T22:44:31.940Z,109.45
2018-02-08T22:46:59.455Z,114.12
2018-02-08T22:49:26.964Z,102.45
2018-02-08T22:51:54.832Z,107.15
2018-02-08T22:54:22.337Z,107.35
2018-02-08T22:56:49.865Z,107.15
2018-02-08T22:59:17.354Z,116.03
2018-02-08T23:01:44.888Z,110.43
2018-02-08T23:04:12.458Z,117.40
2018-02-08T23:06:39.986Z,113.37
2018-02-08T23:09:07.502Z,105.37
2018-02-08T23:11:34.996Z,105.85
2018-02-08T23:14:02.508Z,106.55
2018-02-08T23:16:30.119Z,111.80
2018-02-08T23:18:57.840Z,105.35
2018-02-08T23:21:25.349Z,113.65
2018-02-08T23:23:53.031Z,113.70
2018-02-08T23:26:20.672Z,106.85
2018-02-08T23:28:48.248Z,108.72
2018-02-08T23:31:15.849Z,107.63
2018-02-08T23:33:43.346Z,112.65
2018-02-08T23:36:10.855Z,113.75
2018-02-08T23:38:38.356Z,113.30
2018-02-08T23:41:05.925Z,113.72
2018-02-08T23:43:34.250Z,113.85
2018-02-08T23:46:02.156Z,111.30
2018-02-08T23:48:29.672Z,109.65
2018-02-08T23:50:57.162Z,122.70
2018-02-08T23:53:24.666Z,111.30
2018-02-08T23:55:52.151Z,113.95
2018-02-08T23:58:19.681Z,108.93
